Terminal Aerodrome Forecast
Issued by NWS Detroit/Pontiac, MI

Home | Current Version | Previous Version | Text Only | Print | Product List | Glossary On
Versions: 1 2 3 4 5 6 7 8 9 10 11 12 13 14 15 16 17 18 19 20 21 22 23 24 25 26
000
FTUS43 KDTX 182111 AAA
TAFDTW
TAF AMD
KDTW 182111Z 1821/1924 21013G20KT P6SM FEW250
     FM182300 21008KT P6SM SKC
     FM191400 23010KT P6SM SCT250
     FM191800 26012KT P6SM SKC=

USA.gov is the U.S. government's official web portal to all federal, state and local government web resources and services.